Language selection

My Weather Profile Weather Topics  | 

Lake Nipigon: Past 24 Hour Conditions

 

Cameron Falls

02:00 PM EDT 23 September 2021
Disclaimer

This table is a summary of hourly weather conditions for the past 24 hours.
Please note that these observations might not always be representative of weather conditions over their associated marine area.

Date / Time
(EDT)
Wind(knots) Conditions Visibility(km) Pressure(kPa) Air tempC) Relative humidity(%) Dew pointC)
23 September 2021
14:00 SSE 3 N/A N/A 101.7 19 48 8
13:00 S 4 N/A N/A 101.8 17 53 8
12:00 ESE 2 N/A N/A 101.9 15 71 10
11:00 SSE 3 N/A N/A 101.9 12 80 9
10:00 calm N/A N/A 102.0 8 99 8
9:00 calm N/A N/A 102.0 5 99 5
8:00 calm N/A N/A 102.0 4 99 4
7:00 calm N/A N/A 102.0 5 99 5
6:00 SSW 1 N/A N/A 102.1 4 99 3
5:00 calm N/A N/A 102.1 5 99 5
4:00 SSW 2 N/A N/A 102.1 4 98 4
3:00 calm N/A N/A 102.1 5 98 5
2:00 calm N/A N/A 102.1 6 97 5
1:00 calm N/A N/A 102.1 7 96 6
0:00 calm N/A N/A 102.2 8 95 7
22 September 2021
23:00 NNE 1 N/A N/A 102.2 9 96 8
22:00 calm N/A N/A 102.2 10 90 9
21:00 S 1 N/A N/A 102.2 12 79 8
20:00 SSE 2 N/A N/A 102.2 13 74 9
19:00 S 5 N/A N/A 102.2 16 59 8
18:00 S 6 N/A N/A 102.2 17 57 8
17:00 SSE 7 N/A N/A 102.2 17 53 8
16:00 SSE 4 N/A N/A 102.3 18 50 7
15:00 W 2 N/A N/A 102.3 18 44 6
14:00 S 3 N/A N/A 102.4 17 48 6

Zoom-in to make a selection

Map of Great Lakes - Lake Superior marine weather areas Mid Superior - 45001 East Superior - 45004 West Superior - 45006 Slate Island - 45136 Lake Of the Woods - 45148 Kenora Airport Royal Island Armstrong Airport Caribou Island Marathon Airport Pukaskwa National Park Thunder Bay Airport Welcome Island Little Flatland Island Sault Ste. Marie Airport Wawa Airport
Legend:
buoy Buoy
land station Land Station

Great Lakes - Lake Superior Area

Another Region

What we are doing

Date modified: